IAH weather

George Bush Intercontinental Houston Airport
Houston, Texas, United States

Public forecast

Using degrees Fahrenheit for public forecast. Weather courtesy of forecast.io.

Current aviation weather report (METAR) for George Bush Intercontinental Houston Airport

Retrieved 2019/10/23 01:53 UTC (27 minutes ago):

KIAH 230153Z 00000KT 10SM CLR 16/08 A3014 RMK AO2 SLP204 T01560083

Aviation forecast (TAF) for George Bush Intercontinental Houston Airport

Retrieved 2019-10-23 00:22 UTC (2 hours ago):

TAF KIAH 222320Z 2300/2406 05008KT P6SM FEW250 FM230200 VRB04KT P6SM SKC FM231600 12011KT P6SM SKC FM240400 10006KT P6SM SKC